sensor_id;sensor_type;location;lat;lon;timestamp;temperature;humidity
1524;DHT22;755;53.658;10.118;2022-09-03T00:09:31;15.30;99.90
1524;DHT22;755;53.658;10.118;2022-09-03T00:19:38;15.20;99.90
1524;DHT22;755;53.658;10.118;2022-09-03T00:29:45;15.20;99.90
1524;DHT22;755;53.658;10.118;2022-09-03T00:39:48;15.20;99.90
1524;DHT22;755;53.658;10.118;2022-09-03T00:50:00;15.10;99.90
1524;DHT22;755;53.658;10.118;2022-09-03T01:00:07;15.00;99.90
1524;DHT22;755;53.658;10.118;2022-09-03T01:10:19;15.00;99.90
1524;DHT22;755;53.658;10.118;2022-09-03T01:20:36;15.00;99.90
1524;DHT22;755;53.658;10.118;2022-09-03T01:30:47;15.10;99.90
1524;DHT22;755;53.658;10.118;2022-09-03T01:41:00;15.00;99.90
1524;DHT22;755;53.658;10.118;2022-09-03T01:51:22;15.10;99.90
1524;DHT22;755;53.658;10.118;2022-09-03T02:01:28;14.80;99.90
1524;DHT22;755;53.658;10.118;2022-09-03T02:11:33;14.60;99.90
1524;DHT22;755;53.658;10.118;2022-09-03T02:21:38;14.40;99.90
1524;DHT22;755;53.658;10.118;2022-09-03T02:31:42;14.40;99.90
1524;DHT22;755;53.658;10.118;2022-09-03T02:41:49;14.30;99.90
1524;DHT22;755;53.658;10.118;2022-09-03T02:51:56;14.10;99.90
1524;DHT22;755;53.658;10.118;2022-09-03T03:02:00;14.10;1.00
1524;DHT22;755;53.658;10.118;2022-09-03T03:12:04;14.00;99.90
1524;DHT22;755;53.658;10.118;2022-09-03T03:22:06;13.90;1.00
1524;DHT22;755;53.658;10.118;2022-09-03T03:32:10;13.80;1.00
1524;DHT22;755;53.658;10.118;2022-09-03T03:42:12;13.70;1.00
1524;DHT22;755;53.658;10.118;2022-09-03T03:52:15;13.60;1.00
1524;DHT22;755;53.658;10.118;2022-09-03T04:02:17;13.60;1.00
1524;DHT22;755;53.658;10.118;2022-09-03T04:12:21;13.40;1.00
1524;DHT22;755;53.658;10.118;2022-09-03T04:22:23;13.30;1.00
1524;DHT22;755;53.658;10.118;2022-09-03T04:32:26;13.20;1.00
1524;DHT22;755;53.658;10.118;2022-09-03T04:42:46;13.20;1.00
1524;DHT22;755;53.658;10.118;2022-09-03T04:52:49;13.20;1.00
1524;DHT22;755;53.658;10.118;2022-09-03T05:02:52;13.40;1.00
1524;DHT22;755;53.658;10.118;2022-09-03T05:12:59;13.40;1.00
1524;DHT22;755;53.658;10.118;2022-09-03T05:23:02;13.50;1.00
1524;DHT22;755;53.658;10.118;2022-09-03T05:33:05;13.60;1.00
1524;DHT22;755;53.658;10.118;2022-09-03T05:43:07;13.70;1.00
1524;DHT22;755;53.658;10.118;2022-09-03T05:53:11;13.70;1.00
1524;DHT22;755;53.658;10.118;2022-09-03T06:03:13;13.80;1.00
1524;DHT22;755;53.658;10.118;2022-09-03T06:13:16;14.00;99.90
1524;DHT22;755;53.658;10.118;2022-09-03T06:23:18;14.30;99.90
1524;DHT22;755;53.658;10.118;2022-09-03T06:33:21;14.50;99.90
1524;DHT22;755;53.658;10.118;2022-09-03T06:43:24;14.70;99.90
1524;DHT22;755;53.658;10.118;2022-09-03T06:53:30;14.80;99.90
1524;DHT22;755;53.658;10.118;2022-09-03T07:03:33;15.00;99.90
1524;DHT22;755;53.658;10.118;2022-09-03T07:13:37;15.30;99.90
1524;DHT22;755;53.658;10.118;2022-09-03T07:23:40;15.70;99.90
1524;DHT22;755;53.658;10.118;2022-09-03T07:33:44;16.30;99.90
1524;DHT22;755;53.658;10.118;2022-09-03T07:43:46;16.90;60.70
1524;DHT22;755;53.658;10.118;2022-09-03T07:53:52;17.80;9.10
1524;DHT22;755;53.658;10.118;2022-09-03T08:03:54;17.90;1.00
1524;DHT22;755;53.658;10.118;2022-09-03T08:13:59;18.90;1.00
1524;DHT22;755;53.658;10.118;2022-09-03T08:24:02;20.10;1.00
1524;DHT22;755;53.658;10.118;2022-09-03T08:34:06;20.40;1.00
1524;DHT22;755;53.658;10.118;2022-09-03T08:44:20;21.30;1.00
1524;DHT22;755;53.658;10.118;2022-09-03T08:54:29;21.40;1.00
1524;DHT22;755;53.658;10.118;2022-09-03T09:04:43;21.90;1.00
1524;DHT22;755;53.658;10.118;2022-09-03T09:14:55;21.90;1.00
1524;DHT22;755;53.658;10.118;2022-09-03T09:25:07;22.90;1.00
1524;DHT22;755;53.658;10.118;2022-09-03T09:35:14;23.20;1.00
1524;DHT22;755;53.658;10.118;2022-09-03T09:45:18;21.60;1.00
1524;DHT22;755;53.658;10.118;2022-09-03T09:55:22;21.20;1.00
1524;DHT22;755;53.658;10.118;2022-09-03T10:05:27;22.30;1.00
1524;DHT22;755;53.658;10.118;2022-09-03T10:15:36;22.90;1.00
1524;DHT22;755;53.658;10.118;2022-09-03T10:25:58;22.80;99.90
1524;DHT22;755;53.658;10.118;2022-09-03T10:36:13;22.20;99.90
1524;DHT22;755;53.658;10.118;2022-09-03T10:46:25;21.70;99.90
1524;DHT22;755;53.658;10.118;2022-09-03T10:56:34;21.70;99.90
1524;DHT22;755;53.658;10.118;2022-09-03T11:06:56;21.80;99.90
1524;DHT22;755;53.658;10.118;2022-09-03T11:17:06;21.90;99.90
1524;DHT22;755;53.658;10.118;2022-09-03T11:27:25;22.20;99.90
1524;DHT22;755;53.658;10.118;2022-09-03T11:37:32;21.70;99.90
1524;DHT22;755;53.658;10.118;2022-09-03T11:47:39;21.60;99.90
1524;DHT22;755;53.658;10.118;2022-09-03T11:57:43;21.90;99.90
1524;DHT22;755;53.658;10.118;2022-09-03T12:07:59;22.70;99.90
1524;DHT22;755;53.658;10.118;2022-09-03T12:18:09;22.10;99.90
1524;DHT22;755;53.658;10.118;2022-09-03T12:28:23;22.70;99.90
1524;DHT22;755;53.658;10.118;2022-09-03T12:38:29;23.00;99.90
1524;DHT22;755;53.658;10.118;2022-09-03T12:48:32;23.40;99.90
1524;DHT22;755;53.658;10.118;2022-09-03T12:58:37;23.00;99.90
1524;DHT22;755;53.658;10.118;2022-09-03T13:08:45;23.10;99.90
1524;DHT22;755;53.658;10.118;2022-09-03T13:18:53;23.20;99.90
1524;DHT22;755;53.658;10.118;2022-09-03T13:29:25;23.00;99.90
1524;DHT22;755;53.658;10.118;2022-09-03T13:39:37;23.30;99.90
1524;DHT22;755;53.658;10.118;2022-09-03T13:49:42;22.40;99.90
1524;DHT22;755;53.658;10.118;2022-09-03T14:00:09;22.30;99.90
1524;DHT22;755;53.658;10.118;2022-09-03T14:10:21;22.40;99.90
1524;DHT22;755;53.658;10.118;2022-09-03T14:20:27;22.20;99.90
1524;DHT22;755;53.658;10.118;2022-09-03T14:30:36;22.10;99.90
1524;DHT22;755;53.658;10.118;2022-09-03T14:40:44;22.10;99.90
1524;DHT22;755;53.658;10.118;2022-09-03T14:51:02;21.80;99.90
1524;DHT22;755;53.658;10.118;2022-09-03T15:01:10;21.70;99.90
1524;DHT22;755;53.658;10.118;2022-09-03T15:11:17;21.80;99.90
1524;DHT22;755;53.658;10.118;2022-09-03T15:21:24;21.70;99.90
1524;DHT22;755;53.658;10.118;2022-09-03T15:31:44;21.70;99.90
1524;DHT22;755;53.658;10.118;2022-09-03T15:41:51;21.40;99.90
1524;DHT22;755;53.658;10.118;2022-09-03T15:52:02;21.50;99.90
1524;DHT22;755;53.658;10.118;2022-09-03T16:02:11;21.30;99.90
1524;DHT22;755;53.658;10.118;2022-09-03T16:12:20;21.20;99.90
1524;DHT22;755;53.658;10.118;2022-09-03T16:22:28;21.00;99.90
1524;DHT22;755;53.658;10.118;2022-09-03T16:32:56;20.90;99.90
1524;DHT22;755;53.658;10.118;2022-09-03T16:43:07;20.60;99.90
1524;DHT22;755;53.658;10.118;2022-09-03T16:53:14;20.40;99.90
1524;DHT22;755;53.658;10.118;2022-09-03T17:14:16;20.30;99.90
1524;DHT22;755;53.658;10.118;2022-09-03T17:24:41;20.10;99.90
1524;DHT22;755;53.658;10.118;2022-09-03T17:34:58;20.00;99.90
1524;DHT22;755;53.658;10.118;2022-09-03T17:45:14;19.70;99.90
1524;DHT22;755;53.658;10.118;2022-09-03T17:55:27;19.50;99.90
1524;DHT22;755;53.658;10.118;2022-09-03T18:05:40;19.30;99.90
1524;DHT22;755;53.658;10.118;2022-09-03T18:15:48;19.00;99.90
1524;DHT22;755;53.658;10.118;2022-09-03T18:25:57;18.80;99.90
1524;DHT22;755;53.658;10.118;2022-09-03T18:36:19;18.50;99.90
1524;DHT22;755;53.658;10.118;2022-09-03T18:46:46;18.40;99.90
1524;DHT22;755;53.658;10.118;2022-09-03T18:57:13;17.90;99.90
1524;DHT22;755;53.658;10.118;2022-09-03T19:07:44;17.70;99.90
1524;DHT22;755;53.658;10.118;2022-09-03T19:18:12;17.60;99.90
1524;DHT22;755;53.658;10.118;2022-09-03T19:28:40;17.40;99.90
1524;DHT22;755;53.658;10.118;2022-09-03T19:39:12;17.20;1.00
1524;DHT22;755;53.658;10.118;2022-09-03T19:49:47;16.90;1.00
1524;DHT22;755;53.658;10.118;2022-09-03T20:00:10;16.80;1.00
1524;DHT22;755;53.658;10.118;2022-09-03T20:10:33;16.60;1.00
1524;DHT22;755;53.658;10.118;2022-09-03T20:20:43;16.40;1.00
1524;DHT22;755;53.658;10.118;2022-09-03T20:30:54;16.30;1.00
1524;DHT22;755;53.658;10.118;2022-09-03T20:41:06;16.00;1.00
1524;DHT22;755;53.658;10.118;2022-09-03T20:51:16;16.00;1.00
1524;DHT22;755;53.658;10.118;2022-09-03T21:01:28;16.00;1.00
1524;DHT22;755;53.658;10.118;2022-09-03T21:11:40;16.00;1.00
1524;DHT22;755;53.658;10.118;2022-09-03T21:21:49;15.90;1.00
1524;DHT22;755;53.658;10.118;2022-09-03T21:32:00;15.80;99.90
1524;DHT22;755;53.658;10.118;2022-09-03T21:42:08;15.80;99.90
1524;DHT22;755;53.658;10.118;2022-09-03T21:52:16;15.70;99.90
1524;DHT22;755;53.658;10.118;2022-09-03T22:02:22;15.60;1.00
1524;DHT22;755;53.658;10.118;2022-09-03T22:12:30;15.50;80.60
1524;DHT22;755;53.658;10.118;2022-09-03T22:22:39;15.50;99.90
1524;DHT22;755;53.658;10.118;2022-09-03T22:32:53;15.30;99.90
1524;DHT22;755;53.658;10.118;2022-09-03T22:43:17;15.30;99.90
1524;DHT22;755;53.658;10.118;2022-09-03T22:53:33;15.20;1.00
1524;DHT22;755;53.658;10.118;2022-09-03T23:03:46;15.10;1.00
1524;DHT22;755;53.658;10.118;2022-09-03T23:13:56;15.10;1.00
1524;DHT22;755;53.658;10.118;2022-09-03T23:24:09;15.00;1.00
1524;DHT22;755;53.658;10.118;2022-09-03T23:34:18;14.80;94.30
1524;DHT22;755;53.658;10.118;2022-09-03T23:44:39;14.80;24.10
1524;DHT22;755;53.658;10.118;2022-09-03T23:54:46;14.70;99.90
